Direction — WDD4634 — position and weather

sailwx.info

Track history (hours):
 
Tides and Currents Weather Stations Pressure Air Temp Water Temp Dewpoint Dewpoint Depression Visibility Wind Speed Wind Dir Waves Ship Positions

Direction

Owner: Broadbill Fishing Inc, Westport, MA. More information available from US FCC via Universal Licensing System and Coast Guard Vessel Documentation Center.

Last reported at 2015-Sep-18 12:11 UTC. Time now 2016-May-01 21:18 UTC.
Position N 41°33' W 067°03'.
Warning: this ship's position is months out of date.

Length 25 m.

Type: Fishing. MMSI: 367147350.

Date/timePositionNaut miles runAvg speedWind from/ knotsBaromVisibWave heightAir tempDewpointWater temp
2015-Sep-18 12:11N 41°33' W 067°03'81 2.4
2015-Sep-17 03:06N 41°25' W 068°51'14 8.7
2015-Sep-17 01:31N 41°25' W 069°09'61 8.2
2015-Sep-16 18:04N 41°29' W 070°31'5 9.7
2015-Sep-16 17:31N 41°30' W 070°37'  
2015-Sep-09 09:31N 41°36' W 067°18'3 1.3
2015-Sep-09 07:33N 41°33' W 067°17'7 1.6
2015-Sep-09 03:32N 41°29' W 067°12'5 1.5
2015-Sep-09 00:23N 41°24' W 067°09'3 3.8
2015-Sep-08 23:33N 41°25' W 067°14'6 6.1
2015-Sep-08 22:32N 41°29' W 067°20'7 7.0
2015-Sep-08 21:33N 41°33' W 067°12'  
Track history (hours):
 
Tides and Currents Weather Stations Pressure Air Temp Water Temp Dewpoint Dewpoint Depression Visibility Wind Speed Wind Dir Waves Ship Positions

Direction

Owner: Broadbill Fishing Inc, Westport, MA. More information available from US FCC via Universal Licensing System and Coast Guard Vessel Documentation Center.

Last reported at 2015-Sep-18 12:11 UTC. Time now 2016-May-01 21:18 UTC.
Position N 41°33' W 067°03'.
Warning: this ship's position is months out of date.

Length 25 m.

Type: Fishing. MMSI: 367147350.

Date/timePositionNaut miles runAvg speedWind from/ knotsBaromVisibWave heightAir tempDewpointWater temp
2015-Sep-18 12:11N 41°33' W 067°03'81 2.4
2015-Sep-17 03:06N 41°25' W 068°51'14 8.7
2015-Sep-17 01:31N 41°25' W 069°09'61 8.2
2015-Sep-16 18:04N 41°29' W 070°31'5 9.7
2015-Sep-16 17:31N 41°30' W 070°37'  
2015-Sep-09 09:31N 41°36' W 067°18'3 1.3
2015-Sep-09 07:33N 41°33' W 067°17'7 1.6
2015-Sep-09 03:32N 41°29' W 067°12'5 1.5
2015-Sep-09 00:23N 41°24' W 067°09'3 3.8
2015-Sep-08 23:33N 41°25' W 067°14'6 6.1
2015-Sep-08 22:32N 41°29' W 067°20'7 7.0
2015-Sep-08 21:33N 41°33' W 067°12'  

Dump ship's entire track history